»·PEaware :: N29239 A09-KOXR

N29239 :: A09-KOXR

FLIGHT INFORMATION

Flight Status: Arrived
Operator: Privately registered:
United States
More flights under this callsign
Pilot: Evan M. (27470)
Aircraft: CESSNA 208 CARAVAN
(C208)
More flights by this aircraft type
Origin: A09 Eagle Airpark
United States
Destination: KOXR Oxnard
United States
More flights between these airports :: More routes between these airports
Route: HEC BASAL PMD
File this flight plan on PilotEdge
Remarks:
Altitude:
(Current/Filed)
8,000ft
Speed:
(Current/Filed)
150kts
Departed: 01-Feb-21 05:12 PM
Arrived: 01-Feb-21 06:36 PM
Distance/Time
Traveled:
230nm/1:24
Distance/Time
To Go:
Arrived

Flight Plot

Page will automatically refresh every two minutes.

Flight plan parsing failed; only flown route is shown


Map Options




Map Legend


Flown Route
Filed Route
Departure Airport
Arrival Airport
Navaid (VOR, NDB)
Fix

Horizontal Profiles

Position Reports

Time Latitude Longitude Heading Altitude Ground
Speed
01-Feb-21 17:10 34.890669 -114.616606 179 494ft 63kts
01-Feb-21 17:11 34.868636 -114.630441 253 1448ft 99kts
01-Feb-21 17:12 34.863901 -114.664591 253 2769ft 106kts
01-Feb-21 17:13 34.851880 -114.697745 282 4167ft 108kts
01-Feb-21 17:14 34.864958 -114.730181 301 5580ft 109kts
01-Feb-21 17:15 34.879386 -114.763675 286 6908ft 114kts
01-Feb-21 17:16 34.879782 -114.803468 262 8063ft 134kts
01-Feb-21 17:17 34.877435 -114.858053 265 8184ft 176kts
01-Feb-21 17:18 34.874558 -114.918614 264 8173ft 180kts
01-Feb-21 17:19 34.872051 -114.979674 264 8182ft 181kts
01-Feb-21 17:20 34.869217 -115.040981 265 8185ft 181kts
01-Feb-21 17:21 34.866453 -115.102543 264 8181ft 181kts
01-Feb-21 17:22 34.863678 -115.163869 265 8183ft 181kts
01-Feb-21 17:23 34.860810 -115.225283 265 8183ft 181kts
01-Feb-21 17:24 34.858263 -115.283026 263 9051ft 146kts
01-Feb-21 17:25 34.855649 -115.333215 263 9919ft 158kts
01-Feb-21 17:26 34.853127 -115.388832 262 9997ft 176kts
01-Feb-21 17:27 34.850230 -115.449380 263 9981ft 179kts
01-Feb-21 17:28 34.847244 -115.509900 263 9982ft 179kts
01-Feb-21 17:29 34.844289 -115.570224 263 9993ft 179kts
01-Feb-21 17:30 34.841281 -115.631100 263 9975ft 179kts
01-Feb-21 17:31 34.838280 -115.691360 263 9953ft 176kts
01-Feb-21 17:32 34.835259 -115.750871 262 9962ft 176kts
01-Feb-21 17:33 34.832243 -115.810553 263 9982ft 177kts
01-Feb-21 17:34 34.829116 -115.870598 263 9982ft 177kts
01-Feb-21 17:35 34.826022 -115.930470 263 9981ft 177kts
01-Feb-21 17:36 34.822887 -115.990164 263 10035ft 176kts
01-Feb-21 17:37 34.819711 -116.049904 263 10058ft 177kts
01-Feb-21 17:38 34.816493 -116.110082 263 10053ft 178kts
01-Feb-21 17:39 34.813244 -116.170352 263 10045ft 178kts
01-Feb-21 17:40 34.809945 -116.230849 263 9971ft 178kts
01-Feb-21 17:41 34.807524 -116.290657 260 9991ft 176kts
01-Feb-21 17:42 34.803299 -116.350062 262 10068ft 176kts
01-Feb-21 17:43 34.798834 -116.409731 262 10076ft 177kts
01-Feb-21 17:44 34.797106 -116.469949 265 10072ft 178kts
01-Feb-21 17:45 34.788102 -116.528212 256 10074ft 176kts
01-Feb-21 17:46 34.782374 -116.587743 258 10083ft 176kts
01-Feb-21 17:47 34.771958 -116.645738 254 10097ft 176kts
01-Feb-21 17:48 34.763863 -116.704805 257 10110ft 177kts
01-Feb-21 17:49 34.755484 -116.763962 257 10108ft 178kts
01-Feb-21 17:50 34.747321 -116.823820 257 10106ft 179kts
01-Feb-21 17:51 34.738971 -116.883440 256 10095ft 178kts
01-Feb-21 17:52 34.736889 -116.944235 264 10098ft 179kts
01-Feb-21 17:53 34.733829 -117.005546 263 10013ft 182kts
01-Feb-21 17:54 34.730317 -117.066696 262 10014ft 181kts
01-Feb-21 17:55 34.726065 -117.127129 260 10035ft 178kts
01-Feb-21 17:56 34.720024 -117.186790 260 10046ft 178kts
01-Feb-21 17:57 34.714048 -117.246594 260 10030ft 178kts
01-Feb-21 17:58 34.707976 -117.306313 260 10040ft 177kts
01-Feb-21 17:59 34.701971 -117.365887 260 10039ft 178kts
01-Feb-21 18:00 34.695921 -117.425962 260 10026ft 180kts
01-Feb-21 18:01 34.689769 -117.486576 260 10018ft 181kts
01-Feb-21 18:02 34.683652 -117.547201 260 10020ft 181kts
01-Feb-21 18:03 34.677485 -117.608195 260 10019ft 181kts
01-Feb-21 18:04 34.671366 -117.668714 260 10016ft 181kts
01-Feb-21 18:05 34.665222 -117.729518 260 10017ft 181kts
01-Feb-21 18:06 34.659100 -117.789934 260 10018ft 180kts
01-Feb-21 18:07 34.653002 -117.850434 260 10020ft 180kts
01-Feb-21 18:08 34.646863 -117.910828 260 10007ft 180kts
01-Feb-21 18:09 34.640824 -117.970745 260 10007ft 179kts
01-Feb-21 18:10 34.634729 -118.030840 260 10008ft 179kts
01-Feb-21 18:11 34.626577 -118.089665 238 10006ft 174kts
01-Feb-21 18:12 34.590876 -118.128223 229 10009ft 173kts
01-Feb-21 18:13 34.562272 -118.175456 230 10007ft 173kts
01-Feb-21 18:14 34.533030 -118.221947 231 10028ft 174kts
01-Feb-21 18:15 34.503901 -118.268723 231 10013ft 174kts
01-Feb-21 18:16 34.474806 -118.315505 230 10061ft 172kts
01-Feb-21 18:17 34.445762 -118.362093 231 10048ft 173kts
01-Feb-21 18:18 34.416618 -118.408609 231 10035ft 172kts
01-Feb-21 18:19 34.387846 -118.454845 230 10035ft 171kts
01-Feb-21 18:20 34.359071 -118.500854 230 10038ft 171kts
01-Feb-21 18:21 34.337086 -118.552090 256 9338ft 183kts
01-Feb-21 18:22 34.328590 -118.612115 258 7743ft 178kts
01-Feb-21 18:23 34.317742 -118.670522 252 6258ft 179kts
01-Feb-21 18:24 34.304688 -118.728134 241 5137ft 167kts
01-Feb-21 18:25 34.272905 -118.769913 223 4691ft 180kts
01-Feb-21 18:27 34.236471 -118.811836 222 3770ft 176kts
01-Feb-21 18:28 34.209695 -118.855410 250 3601ft 157kts
01-Feb-21 18:29 34.198859 -118.905940 269 3585ft 156kts
01-Feb-21 18:30 34.196862 -118.958103 270 3555ft 156kts
01-Feb-21 18:31 34.199455 -119.012454 273 3069ft 175kts
01-Feb-21 18:32 34.199578 -119.071258 270 2119ft 171kts
01-Feb-21 18:33 34.200337 -119.124922 270 1256ft 142kts
01-Feb-21 18:34 34.200401 -119.167291 270 615ft 107kts
01-Feb-21 18:35 34.200754 -119.199025 271 81ft 70kts
01-Feb-21 18:36 34.200175 -119.211586 235 44ft 11kts
01-Feb-21 18:37 34.199812 -119.207861 90 49ft 34kts
01-Feb-21 18:38 34.199295 -119.201716 93 50ft 0kts

Navigation Log

Ident Type
Flight plan parsing failed, navigation log unavailable